KRTN/RTN METAR and TAF weather

Enter ICAO airport designator
Station Type Date Time Source
KRTN METAR 2020/09/22 03:53 UTC NOAA

KRTN 220353Z AUTO 02005KT 10SM CLR 12/06 A3028 RMK AO2 SLP193 T01220061


Station Type Date Time Source
KRTN Decoded METAR 2020/09/22 03:53 UTC NOAA

Raton, Raton Municipal \ Crews Field Airport, NM, United States (KRTN) 36-44-31N 104-39-28W 1939M
Sep 21, 2020 - 11:53 PM EDT / 2020.09.22 0353 UTC
Wind: from the NNE (020 degrees) at 6 MPH (5 KT):0
Visibility: 10 mile(s):0
Sky conditions: clear
Temperature: 54.0 F (12.2 C)
Dew Point: 43.0 F (6.1 C)
Relative Humidity: 66%
Pressure (altimeter): 30.28 in. Hg (1025 hPa)
ob: KRTN 220353Z AUTO 02005KT 10SM CLR 12/06 A3028 RMK AO2 SLP193 T01220061
cycle: 4

Station Type Date Time Source
KRTN TAF UTC NOAA

Error!

Example: see airport list